createdAt,value
2023-04-07T00:00:24.581Z,64.45
2023-04-07T00:02:51.767Z,64.64
2023-04-07T00:05:18.471Z,64.50
2023-04-07T00:07:55.836Z,63.82
2023-04-07T00:10:23.544Z,64.62
2023-04-07T00:12:49.983Z,64.82
2023-04-07T00:15:16.587Z,64.83
2023-04-07T00:17:43.106Z,64.41
2023-04-07T00:20:09.800Z,64.38
2023-04-07T00:22:36.191Z,64.98
2023-04-07T00:25:02.655Z,63.83
2023-04-07T00:27:29.045Z,63.59
2023-04-07T00:29:55.449Z,63.76
2023-04-07T00:32:22.622Z,64.38
2023-04-07T00:34:49.122Z,64.16
2023-04-07T00:37:15.529Z,64.10
2023-04-07T00:39:42.053Z,64.24
2023-04-07T00:42:08.489Z,64.67
2023-04-07T00:44:34.898Z,63.95
2023-04-07T00:47:01.582Z,63.93
2023-04-07T00:49:28.469Z,63.72
2023-04-07T00:51:56.080Z,64.31
2023-04-07T00:54:24.218Z,64.82
2023-04-07T00:56:51.028Z,65.05
2023-04-07T00:59:17.568Z,64.84
2023-04-07T01:01:50.919Z,65.08
2023-04-07T01:09:41.860Z,65.58
2023-04-07T01:12:37.144Z,65.62
2023-04-07T01:15:10.482Z,65.28
2023-04-07T01:17:45.758Z,64.99
2023-04-07T01:20:16.386Z,65.97
2023-04-07T01:22:47.008Z,65.91
2023-04-07T01:25:27.434Z,66.17
2023-04-07T01:28:14.033Z,65.98
2023-04-07T01:30:41.806Z,65.88
2023-04-07T01:33:11.085Z,66.17
2023-04-07T01:35:39.946Z,66.54
2023-04-07T01:38:08.544Z,66.91
2023-04-07T01:40:37.418Z,66.62
2023-04-07T01:43:04.617Z,66.75
2023-04-07T01:45:34.310Z,66.84
2023-04-07T01:48:01.658Z,67.08
2023-04-07T01:50:30.079Z,67.66
2023-04-07T01:52:57.261Z,67.76
2023-04-07T01:55:24.945Z,66.91
2023-04-07T01:58:07.806Z,67.29
2023-04-07T02:00:36.252Z,67.23
2023-04-07T02:03:20.930Z,67.17
2023-04-07T02:05:49.869Z,67.11
2023-04-07T02:08:19.941Z,67.09
2023-04-07T02:10:49.057Z,67.14
2023-04-07T02:13:20.102Z,67.20
2023-04-07T02:15:50.340Z,66.58
2023-04-07T02:18:20.622Z,67.38
2023-04-07T02:20:48.607Z,67.56
2023-04-07T02:23:16.221Z,67.15
2023-04-07T02:25:42.643Z,67.50
2023-04-07T02:28:09.061Z,67.58
2023-04-07T02:30:36.369Z,67.79
2023-04-07T02:33:02.943Z,67.68
2023-04-07T02:35:29.434Z,67.13
2023-04-07T02:37:55.825Z,67.78
2023-04-07T02:40:22.346Z,67.82
2023-04-07T02:42:48.900Z,67.18
2023-04-07T02:45:16.003Z,67.16
2023-04-07T02:47:42.565Z,67.67
2023-04-07T02:50:09.379Z,67.93
2023-04-07T02:52:36.056Z,67.74
2023-04-07T02:55:07.231Z,68.36
2023-04-07T02:57:33.865Z,68.10
2023-04-07T03:00:03.398Z,68.75
2023-04-07T03:02:45.507Z,68.60
2023-04-07T03:05:12.876Z,68.71
2023-04-07T03:07:39.329Z,68.90
2023-04-07T03:10:07.840Z,68.47
2023-04-07T03:12:34.291Z,68.43
2023-04-07T03:15:00.942Z,69.13
2023-04-07T03:17:27.831Z,69.20
2023-04-07T03:19:54.252Z,69.86
2023-04-07T03:22:20.875Z,69.09
2023-04-07T03:24:51.111Z,69.64
2023-04-07T03:27:20.509Z,69.79
2023-04-07T03:29:48.449Z,69.82
2023-04-07T03:32:16.385Z,70.55
2023-04-07T03:34:42.783Z,70.65
2023-04-07T03:37:09.187Z,69.89
2023-04-07T03:39:37.481Z,70.58
2023-04-07T03:42:11.291Z,70.56
2023-04-07T03:44:37.846Z,70.36
2023-04-07T03:47:04.256Z,69.95
2023-04-07T03:49:32.493Z,70.90
2023-04-07T03:52:01.996Z,70.84
2023-04-07T03:54:28.451Z,70.50
2023-04-07T03:56:54.993Z,71.16
2023-04-07T03:59:23.285Z,71.16
2023-04-07T04:01:57.955Z,71.85
2023-04-07T04:04:24.837Z,71.95
2023-04-07T04:06:51.750Z,72.04
2023-04-07T04:09:24.690Z,71.40
2023-04-07T04:11:51.087Z,72.58
2023-04-07T04:14:18.343Z,71.63
2023-04-07T04:16:51.862Z,72.61
2023-04-07T04:19:34.666Z,72.50
2023-04-07T04:22:06.670Z,72.31
2023-04-07T04:24:38.165Z,72.69
2023-04-07T04:27:04.661Z,72.58
2023-04-07T04:29:32.960Z,72.00
2023-04-07T04:32:01.142Z,72.36
2023-04-07T04:34:28.020Z,72.37
2023-04-07T04:36:55.623Z,72.95
2023-04-07T04:39:22.169Z,73.38
2023-04-07T04:41:48.875Z,71.72
2023-04-07T04:44:16.302Z,72.22
2023-04-07T04:46:43.838Z,74.88
2023-04-07T04:49:10.348Z,72.16
2023-04-07T04:51:38.077Z,72.04
2023-04-07T04:54:12.158Z,73.16
2023-04-07T04:56:38.819Z,73.43
2023-04-07T04:59:05.866Z,73.73
2023-04-07T05:01:51.958Z,73.02
2023-04-07T05:04:18.567Z,73.56
2023-04-07T05:06:52.351Z,74.79
2023-04-07T05:09:21.995Z,74.16
2023-04-07T05:11:49.208Z,73.06
2023-04-07T05:14:15.759Z,74.71
2023-04-07T05:16:48.192Z,75.36
2023-04-07T05:19:19.721Z,74.07
2023-04-07T05:21:46.412Z,73.42
2023-04-07T05:24:13.696Z,73.82
2023-04-07T05:26:40.550Z,74.81
2023-04-07T05:29:07.891Z,75.00
2023-04-07T05:31:37.199Z,74.76
2023-04-07T05:34:07.593Z,74.73
2023-04-07T05:36:38.638Z,75.15
2023-04-07T05:39:05.092Z,74.95
2023-04-07T05:41:31.999Z,75.20
2023-04-07T05:43:59.864Z,73.92
2023-04-07T05:46:26.893Z,74.88
2023-04-07T05:48:57.966Z,74.25
2023-04-07T05:51:26.822Z,73.65
2023-04-07T05:53:55.270Z,73.81
2023-04-07T05:56:23.676Z,73.28
2023-04-07T05:58:50.111Z,74.10
2023-04-07T06:01:17.449Z,73.45
2023-04-07T06:03:44.017Z,73.13
2023-04-07T06:06:15.061Z,73.40
2023-04-07T06:08:41.806Z,72.30
2023-04-07T06:11:08.248Z,73.56
2023-04-07T06:13:34.680Z,72.90
2023-04-07T06:16:01.160Z,73.20
2023-04-07T06:18:27.557Z,72.46
2023-04-07T06:20:53.966Z,73.95
2023-04-07T06:23:20.373Z,72.43
2023-04-07T06:25:47.901Z,74.16
2023-04-07T06:28:14.300Z,73.94
2023-04-07T06:30:41.001Z,73.14
2023-04-07T06:33:10.800Z,73.32
2023-04-07T06:35:37.226Z,72.57
2023-04-07T06:38:03.651Z,72.61
2023-04-07T06:40:30.059Z,73.74
2023-04-07T06:42:56.639Z,73.20
2023-04-07T06:45:28.971Z,73.46
2023-04-07T06:47:55.455Z,71.67
2023-04-07T06:50:22.306Z,70.52
2023-04-07T06:52:48.742Z,70.28
2023-04-07T06:55:15.630Z,68.01
2023-04-07T06:57:42.073Z,66.50
2023-04-07T07:00:10.080Z,65.59
2023-04-07T07:02:36.533Z,65.25
2023-04-07T07:05:04.686Z,65.08
2023-04-07T07:07:31.098Z,63.62
2023-04-07T07:09:57.493Z,63.04
2023-04-07T07:12:23.883Z,62.88
2023-04-07T07:14:50.276Z,61.18
2023-04-07T07:17:17.068Z,60.10
2023-04-07T07:19:43.472Z,59.84
2023-04-07T07:22:09.876Z,59.01
2023-04-07T07:24:36.581Z,58.34
2023-04-07T07:27:03.475Z,57.28
2023-04-07T07:29:29.954Z,57.98
2023-04-07T07:31:56.399Z,58.27
2023-04-07T07:34:22.884Z,57.67
2023-04-07T07:36:49.267Z,57.57
2023-04-07T07:39:15.954Z,57.87
2023-04-07T07:41:42.377Z,57.22
2023-04-07T07:44:08.913Z,57.00
2023-04-07T07:46:35.357Z,57.12
2023-04-07T07:49:01.783Z,57.09
2023-04-07T07:51:28.182Z,56.78
2023-04-07T07:53:54.639Z,56.31
2023-04-07T07:56:21.584Z,56.21
2023-04-07T07:58:48.161Z,55.82
2023-04-07T08:01:14.629Z,56.04
2023-04-07T08:03:41.467Z,56.56
2023-04-07T08:06:09.456Z,57.10
2023-04-07T08:08:35.921Z,56.99
2023-04-07T08:11:02.904Z,56.96
2023-04-07T08:13:29.354Z,56.38
2023-04-07T08:15:56.043Z,56.35
2023-04-07T08:18:23.102Z,56.46
2023-04-07T08:20:51.538Z,56.54
2023-04-07T08:23:17.990Z,55.50
2023-04-07T08:25:44.504Z,54.70
2023-04-07T08:28:11.092Z,54.30
2023-04-07T08:30:38.034Z,55.15
2023-04-07T08:33:05.944Z,54.35
2023-04-07T08:35:32.456Z,54.26
2023-04-07T08:37:58.869Z,53.44
2023-04-07T08:40:25.317Z,51.91
2023-04-07T08:42:52.621Z,52.40
2023-04-07T08:45:19.381Z,49.10
2023-04-07T08:47:48.369Z,48.90
2023-04-07T08:50:17.224Z,48.68
2023-04-07T08:52:56.734Z,50.07
2023-04-07T08:55:23.898Z,50.33
2023-04-07T08:57:51.402Z,50.59
2023-04-07T09:00:18.416Z,50.19
2023-04-07T09:02:45.681Z,50.63
2023-04-07T09:05:14.510Z,50.18
2023-04-07T09:07:40.989Z,49.64
2023-04-07T09:10:07.856Z,49.38
2023-04-07T09:12:34.482Z,49.41
2023-04-07T09:15:01.417Z,47.41
2023-04-07T09:17:29.099Z,48.06
2023-04-07T09:20:00.756Z,47.20
2023-04-07T09:22:42.377Z,46.33
2023-04-07T09:25:17.647Z,46.40
2023-04-07T09:28:01.984Z,47.26
2023-04-07T09:30:30.054Z,46.73
2023-04-07T09:32:57.568Z,47.13
2023-04-07T09:35:24.670Z,47.46
2023-04-07T09:38:09.040Z,46.92
2023-04-07T09:40:36.608Z,46.75
2023-04-07T09:43:06.705Z,47.96
2023-04-07T09:45:36.234Z,47.04
2023-04-07T09:48:20.746Z,47.25
2023-04-07T09:50:49.623Z,47.42
2023-04-07T09:53:16.767Z,46.12
2023-04-07T09:55:43.905Z,47.22
2023-04-07T09:58:16.914Z,46.51
2023-04-07T10:00:43.660Z,47.15
2023-04-07T10:03:11.018Z,46.62
2023-04-07T10:05:38.758Z,46.78
2023-04-07T10:08:06.584Z,47.17
2023-04-07T10:10:34.966Z,47.70
2023-04-07T10:13:04.779Z,46.96
2023-04-07T10:15:31.504Z,47.40
2023-04-07T10:17:59.462Z,47.43
2023-04-07T10:20:26.922Z,48.21
2023-04-07T10:23:02.345Z,47.16
2023-04-07T10:25:29.111Z,47.33
2023-04-07T10:28:06.583Z,47.06
2023-04-07T10:30:34.053Z,46.54
2023-04-07T10:33:01.158Z,46.31
2023-04-07T10:35:28.575Z,45.83
2023-04-07T10:38:07.198Z,45.47
2023-04-07T10:40:35.419Z,45.48
2023-04-07T10:43:01.861Z,45.92
2023-04-07T10:45:53.420Z,45.53
2023-04-07T10:48:20.648Z,45.23
2023-04-07T10:51:07.935Z,45.70
2023-04-07T10:53:37.141Z,45.02
2023-04-07T10:56:03.711Z,44.35
2023-04-07T10:58:33.280Z,45.13
2023-04-07T11:01:05.871Z,45.18
2023-04-07T11:03:35.903Z,45.55
2023-04-07T11:06:08.110Z,45.76
2023-04-07T11:08:42.684Z,44.94
2023-04-07T11:11:11.565Z,46.69
2023-04-07T11:13:49.116Z,47.38
2023-04-07T11:16:18.222Z,47.67
2023-04-07T11:18:46.374Z,47.67
2023-04-07T11:21:17.500Z,49.16
2023-04-07T11:23:45.627Z,50.04
2023-04-07T11:26:14.611Z,50.61
2023-04-07T11:28:55.594Z,52.45
2023-04-07T11:31:26.934Z,52.75
2023-04-07T11:33:59.187Z,56.25
2023-04-07T11:36:30.999Z,56.99
2023-04-07T11:38:57.888Z,58.97
2023-04-07T11:41:30.517Z,63.59
2023-04-07T11:44:08.286Z,66.09
2023-04-07T11:46:35.447Z,69.97
2023-04-07T11:49:15.617Z,70.55
2023-04-07T11:51:44.614Z,73.79
2023-04-07T11:54:11.414Z,75.26
2023-04-07T11:56:47.816Z,75.75
2023-04-07T11:59:23.079Z,76.99
2023-04-07T12:01:50.977Z,77.42
2023-04-07T12:04:17.994Z,80.30
2023-04-07T12:06:46.848Z,78.53
2023-04-07T12:09:28.611Z,82.00
2023-04-07T12:11:57.024Z,80.83
2023-04-07T12:14:24.496Z,80.72
2023-04-07T12:16:51.135Z,83.53
2023-04-07T12:19:18.293Z,82.90
2023-04-07T12:21:44.679Z,85.94
2023-04-07T12:24:11.343Z,86.47
2023-04-07T12:26:38.563Z,87.41
2023-04-07T12:29:05.481Z,88.67
2023-04-07T12:31:32.888Z,91.67
2023-04-07T12:33:59.498Z,91.75
2023-04-07T12:36:27.588Z,92.77
2023-04-07T12:38:54.533Z,93.02
2023-04-07T12:41:20.988Z,92.15
2023-04-07T12:43:47.455Z,90.78
2023-04-07T12:46:14.335Z,92.10
2023-04-07T12:48:40.803Z,92.31
2023-04-07T12:51:07.345Z,92.45
2023-04-07T12:53:34.067Z,91.28
2023-04-07T12:56:00.522Z,92.55
2023-04-07T12:58:27.068Z,93.05
2023-04-07T13:00:53.605Z,95.16
2023-04-07T13:03:20.165Z,94.75
2023-04-07T13:05:46.755Z,93.54
2023-04-07T13:08:13.160Z,94.65
2023-04-07T13:10:39.582Z,92.95
2023-04-07T13:13:06.030Z,93.60
2023-04-07T13:15:32.534Z,93.78
2023-04-07T13:17:58.988Z,94.84
2023-04-07T13:20:28.017Z,94.73
2023-04-07T13:23:03.739Z,93.38
2023-04-07T13:25:34.748Z,94.53
2023-04-07T13:28:01.276Z,93.00
2023-04-07T13:30:27.715Z,93.42
2023-04-07T13:32:54.306Z,92.09
2023-04-07T13:35:20.993Z,93.43
2023-04-07T13:37:47.391Z,92.19
2023-04-07T13:40:13.777Z,92.53
2023-04-07T13:42:40.231Z,91.62
2023-04-07T13:45:07.303Z,92.55
2023-04-07T13:47:34.585Z,91.00
2023-04-07T13:50:01.944Z,91.45
2023-04-07T13:52:28.753Z,91.96
2023-04-07T13:54:55.372Z,90.84
2023-04-07T13:57:22.101Z,91.58
2023-04-07T13:59:52.270Z,91.37
2023-04-07T14:02:19.857Z,90.80
2023-04-07T14:04:46.819Z,91.40
2023-04-07T14:07:13.477Z,91.22
2023-04-07T14:09:39.876Z,91.92
2023-04-07T14:12:06.451Z,93.11
2023-04-07T14:14:32.849Z,91.17
2023-04-07T14:16:59.426Z,90.48
2023-04-07T14:19:25.896Z,91.58
2023-04-07T14:21:52.282Z,92.64
2023-04-07T14:24:18.843Z,92.88
2023-04-07T14:26:46.290Z,93.57
2023-04-07T14:29:13.438Z,94.81
2023-04-07T14:31:40.176Z,92.87
2023-04-07T14:34:08.159Z,92.81
2023-04-07T14:36:34.602Z,92.78
2023-04-07T14:39:01.191Z,93.40
2023-04-07T14:41:28.034Z,94.11
2023-04-07T14:43:57.424Z,93.90
2023-04-07T14:46:24.269Z,93.22
2023-04-07T14:48:53.942Z,93.71
2023-04-07T14:51:21.387Z,92.80
2023-04-07T14:53:53.286Z,93.58
2023-04-07T14:56:21.230Z,94.65
2023-04-07T14:58:47.618Z,94.55
2023-04-07T15:01:14.082Z,94.95
2023-04-07T15:03:40.625Z,94.94
2023-04-07T15:06:08.726Z,96.51
2023-04-07T15:08:35.285Z,95.98
2023-04-07T15:11:04.604Z,96.75
2023-04-07T15:13:31.056Z,96.68
2023-04-07T15:16:06.024Z,95.06
2023-04-07T15:18:32.471Z,96.16
2023-04-07T15:20:59.122Z,95.56
2023-04-07T15:23:25.719Z,96.35
2023-04-07T15:25:56.013Z,98.49
2023-04-07T15:28:23.053Z,98.15
2023-04-07T15:30:49.459Z,97.83
2023-04-07T15:33:15.873Z,98.45
2023-04-07T15:35:43.471Z,97.43
2023-04-07T15:38:10.347Z,98.03
2023-04-07T15:40:41.139Z,98.22
2023-04-07T15:43:10.434Z,96.41
2023-04-07T15:45:41.381Z,98.14
2023-04-07T15:48:08.003Z,98.42
2023-04-07T15:50:36.000Z,99.11
2023-04-07T15:53:06.731Z,98.92
2023-04-07T15:55:34.830Z,99.41
2023-04-07T15:58:02.473Z,100.00
2023-04-07T16:00:33.495Z,99.86
2023-04-07T16:03:01.130Z,99.17
2023-04-07T16:05:27.598Z,99.01
2023-04-07T16:07:54.072Z,100.00
2023-04-07T16:10:20.478Z,98.98
2023-04-07T16:12:48.056Z,99.13
2023-04-07T16:15:20.441Z,99.54
2023-04-07T16:17:49.609Z,99.38
2023-04-07T16:20:16.211Z,100.00
2023-04-07T16:22:45.517Z,99.50
2023-04-07T16:25:12.688Z,99.38
2023-04-07T16:27:39.089Z,99.77
2023-04-07T16:30:05.928Z,97.45
2023-04-07T16:32:33.158Z,100.00
2023-04-07T16:34:59.599Z,99.56
2023-04-07T16:37:26.325Z,99.27
2023-04-07T16:39:59.628Z,98.41
2023-04-07T16:42:28.548Z,98.20
2023-04-07T16:44:57.582Z,100.00
2023-04-07T16:47:24.719Z,100.00
2023-04-07T16:49:51.184Z,99.22
2023-04-07T16:52:20.060Z,99.54
2023-04-07T16:54:47.010Z,99.76
2023-04-07T16:57:13.601Z,99.09
2023-04-07T16:59:40.416Z,99.39
2023-04-07T17:02:12.854Z,100.00
2023-04-07T17:04:40.113Z,99.97
2023-04-07T17:07:07.128Z,99.71
2023-04-07T17:09:33.689Z,100.00
2023-04-07T17:12:01.678Z,100.00
2023-04-07T17:14:28.636Z,100.00
2023-04-07T17:16:55.026Z,99.51
2023-04-07T17:19:21.577Z,99.41
2023-04-07T17:21:48.229Z,100.00
2023-04-07T17:24:15.814Z,100.00
2023-04-07T17:26:46.597Z,100.00
2023-04-07T17:29:13.877Z,100.00
2023-04-07T17:31:40.619Z,100.00
2023-04-07T17:34:07.465Z,100.00
2023-04-07T17:36:33.931Z,100.00
2023-04-07T17:39:01.255Z,100.00
2023-04-07T17:41:28.336Z,100.00
2023-04-07T17:43:54.844Z,100.00
2023-04-07T17:46:22.495Z,100.00
2023-04-07T17:48:50.636Z,100.00
2023-04-07T17:51:17.642Z,100.00
2023-04-07T17:53:44.042Z,100.00
2023-04-07T17:56:10.429Z,100.00
2023-04-07T17:58:36.864Z,100.00
2023-04-07T18:01:03.311Z,100.00
2023-04-07T18:03:30.106Z,100.00
2023-04-07T18:05:56.662Z,100.00
2023-04-07T18:08:23.148Z,100.00
2023-04-07T18:10:49.553Z,100.00
2023-04-07T18:13:15.965Z,100.00
2023-04-07T18:15:42.387Z,100.00
2023-04-07T18:18:08.824Z,100.00
2023-04-07T18:20:36.076Z,100.00
2023-04-07T18:23:02.923Z,100.00
2023-04-07T18:25:29.360Z,100.00
2023-04-07T18:27:55.748Z,100.00
2023-04-07T18:30:22.311Z,100.00
2023-04-07T18:32:49.280Z,100.00
2023-04-07T18:35:15.964Z,100.00
2023-04-07T18:37:44.103Z,100.00
2023-04-07T18:40:11.453Z,100.00
2023-04-07T18:42:37.918Z,100.00
2023-04-07T18:45:04.591Z,100.00
2023-04-07T18:47:31.053Z,100.00
2023-04-07T18:50:00.177Z,100.00
2023-04-07T18:52:26.721Z,100.00
2023-04-07T18:54:53.147Z,100.00
2023-04-07T18:57:19.585Z,100.00
2023-04-07T18:59:46.053Z,100.00
2023-04-07T19:02:12.588Z,100.00
2023-04-07T19:04:39.171Z,100.00
2023-04-07T19:07:05.788Z,100.00
2023-04-07T19:09:33.168Z,100.00
2023-04-07T19:11:59.686Z,100.00
2023-04-07T19:14:26.239Z,100.00
2023-04-07T19:16:52.822Z,100.00
2023-04-07T19:19:19.394Z,100.00
2023-04-07T19:21:45.818Z,100.00
2023-04-07T19:24:12.251Z,100.00
2023-04-07T19:26:38.678Z,100.00
2023-04-07T19:29:05.078Z,100.00
2023-04-07T19:31:31.611Z,100.00
2023-04-07T19:33:58.512Z,100.00
2023-04-07T19:36:26.437Z,100.00
2023-04-07T19:38:52.924Z,100.00
2023-04-07T19:41:19.355Z,100.00
2023-04-07T19:43:45.762Z,100.00
2023-04-07T19:46:12.334Z,100.00
2023-04-07T19:48:39.949Z,100.00
2023-04-07T19:51:07.536Z,100.00
2023-04-07T19:53:34.088Z,100.00
2023-04-07T19:56:02.004Z,100.00
2023-04-07T19:58:28.434Z,100.00
2023-04-07T20:00:55.080Z,100.00
2023-04-07T20:03:22.010Z,100.00
2023-04-07T20:05:48.578Z,100.00
2023-04-07T20:08:14.965Z,100.00
2023-04-07T20:10:41.373Z,100.00
2023-04-07T20:13:09.072Z,100.00
2023-04-07T20:15:35.458Z,100.00
2023-04-07T20:18:01.904Z,100.00
2023-04-07T20:20:28.525Z,100.00
2023-04-07T20:22:54.915Z,100.00
2023-04-07T20:25:21.361Z,100.00
2023-04-07T20:27:49.926Z,100.00
2023-04-07T20:30:16.450Z,100.00
2023-04-07T20:32:43.447Z,100.00
2023-04-07T20:35:11.894Z,100.00
2023-04-07T20:37:38.569Z,100.00
2023-04-07T20:40:06.118Z,100.00
2023-04-07T20:42:32.645Z,100.00
2023-04-07T20:45:03.621Z,100.00
2023-04-07T20:47:31.117Z,100.00
2023-04-07T20:49:57.871Z,100.00
2023-04-07T20:52:26.332Z,100.00
2023-04-07T20:54:52.737Z,100.00
2023-04-07T20:57:19.139Z,100.00
2023-04-07T20:59:45.534Z,100.00
2023-04-07T21:02:12.016Z,100.00
2023-04-07T21:04:38.506Z,100.00
2023-04-07T21:07:04.903Z,100.00
2023-04-07T21:09:31.313Z,100.00
2023-04-07T21:11:57.723Z,100.00
2023-04-07T21:14:24.112Z,100.00
2023-04-07T21:16:50.555Z,100.00
2023-04-07T21:19:17.711Z,100.00
2023-04-07T21:21:44.123Z,100.00
2023-04-07T21:24:10.583Z,100.00
2023-04-07T21:26:36.989Z,100.00
2023-04-07T21:29:03.371Z,100.00
2023-04-07T21:31:29.831Z,100.00
2023-04-07T21:33:56.249Z,100.00
2023-04-07T21:36:22.649Z,100.00
2023-04-07T21:38:50.141Z,100.00
2023-04-07T21:41:16.665Z,100.00
2023-04-07T21:43:43.067Z,100.00
2023-04-07T21:46:09.562Z,100.00
2023-04-07T21:48:36.017Z,100.00
2023-04-07T21:51:02.868Z,100.00
2023-04-07T21:53:29.271Z,100.00
2023-04-07T21:55:56.101Z,100.00
2023-04-07T21:58:23.457Z,100.00
2023-04-07T22:00:50.062Z,100.00
2023-04-07T22:03:16.793Z,100.00
2023-04-07T22:05:43.421Z,100.00
2023-04-07T22:08:09.806Z,100.00
2023-04-07T22:10:36.394Z,100.00
2023-04-07T22:13:02.835Z,100.00
2023-04-07T22:15:29.316Z,100.00
2023-04-07T22:17:58.524Z,100.00
2023-04-07T22:20:25.866Z,100.00
2023-04-07T22:22:54.043Z,100.00
2023-04-07T22:25:20.492Z,100.00
2023-04-07T22:27:46.959Z,100.00
2023-04-07T22:30:13.356Z,100.00
2023-04-07T22:32:41.359Z,100.00
2023-04-07T22:35:08.205Z,100.00
2023-04-07T22:37:34.598Z,100.00
2023-04-07T22:40:01.479Z,100.00
2023-04-07T22:42:27.912Z,100.00
2023-04-07T22:44:54.329Z,100.00
2023-04-07T22:47:21.964Z,100.00
2023-04-07T22:49:48.469Z,100.00
2023-04-07T22:52:14.892Z,100.00
2023-04-07T22:54:41.342Z,100.00
2023-04-07T22:57:07.739Z,100.00
2023-04-07T22:59:34.200Z,100.00
2023-04-07T23:02:00.786Z,100.00
2023-04-07T23:04:27.292Z,100.00
2023-04-07T23:06:53.830Z,100.00
2023-04-07T23:09:20.233Z,100.00
2023-04-07T23:11:47.265Z,100.00
2023-04-07T23:14:13.915Z,100.00
2023-04-07T23:16:40.419Z,100.00
2023-04-07T23:19:11.331Z,100.00
2023-04-07T23:21:39.056Z,100.00
2023-04-07T23:24:05.483Z,100.00
2023-04-07T23:26:31.945Z,100.00
2023-04-07T23:28:58.380Z,100.00
2023-04-07T23:31:24.803Z,100.00
2023-04-07T23:33:51.537Z,100.00
2023-04-07T23:36:17.993Z,100.00
2023-04-07T23:38:44.369Z,100.00
2023-04-07T23:41:10.772Z,100.00
2023-04-07T23:43:37.176Z,100.00
2023-04-07T23:46:03.633Z,100.00
2023-04-07T23:48:30.973Z,100.00
2023-04-07T23:50:59.683Z,100.00
2023-04-07T23:53:26.104Z,100.00
2023-04-07T23:55:52.520Z,100.00
2023-04-07T23:58:18.909Z,100.00
